Time;durP1;ratioP1;P1;durP2;ratioP2;P2;SDS_P1;SDS_P2;PMS_P1;PMS_P2;Temp;Humidity;BMP_temperature;BMP_pressure;BME280_temperature;BME280_humidity;BME280_pressure;Samples;Min_cycle;Max_cycle;Signal;HPM_P1;HPM_P2
2022/03/29 00:02:11;;;;;;;;;;;;;;;;;;5095741;28;20016;-68
2022/03/29 00:04:37;;;;;;;;;;;;;;;;;;5096216;28;19908;-68
2022/03/29 00:07:03;;;;;;;;;;;;;;;;;;5096074;28;19916;-68
2022/03/29 00:09:29;;;;;;;;;;;;;;;;;;5094205;28;19961;-68
2022/03/29 00:11:55;;;;;;;;;;;;;;;;;;5093029;28;20326;-68
2022/03/29 00:14:21;;;;;;;;;;;;;;;;;;5095914;28;19912;-68
2022/03/29 00:22:16;;;;;;;;;;;;;;;;;;5094980;28;19915;-68
2022/03/29 00:24:42;;;;;;;;;;;;;;;;;;5094495;28;20342;-70
2022/03/29 00:27:09;;;;;;;;;;;;;;;;;;5093885;28;19946;-68
2022/03/29 00:29:37;;;;;;;;;;;;;;;;;;5094434;28;19912;-68
2022/03/29 00:32:03;;;;;;;;;;;;;;;;;;5093377;28;19999;-68
2022/03/29 00:34:29;;;;;;;;;;;;;;;;;;5094164;28;19915;-68
2022/03/29 00:36:55;;;;;;;;;;;;;;;;;;5095098;28;19912;-68
2022/03/29 00:39:21;;;;;;;;;;;;;;;;;;5095618;28;20383;-68
2022/03/29 00:41:46;;;;;;;;;;;;;;;;;;5095258;28;19920;-68
2022/03/29 00:44:13;;;;;;;;;;;;;;;;;;5094189;28;19995;-69
2022/03/29 00:46:39;;;;;;;;;;;;;;;;;;5095158;28;19969;-68
2022/03/29 00:49:06;;;;;;;;;;;;;;;;;;5094366;28;19908;-68
2022/03/29 00:51:32;;;;;;;;;;;;;;;;;;5093409;28;19991;-68
2022/03/29 00:53:58;;;;;;;;;;;;;;;;;;5095229;28;19943;-68
2022/03/29 00:56:24;;;;;;;;;;;;;;;;;;5093944;28;19994;-67
2022/03/29 00:58:50;;;;;;;;;;;;;;;;;;5094834;28;19908;-69
2022/03/29 01:01:16;;;;;;;;;;;;;;;;;;5095018;28;20364;-68
2022/03/29 01:03:42;;;;;;;;;;;;;;;;;;5093775;28;19999;-68
2022/03/29 01:06:08;;;;;;;;;;;;;;;;;;5094421;28;19924;-68
2022/03/29 01:08:35;;;;;;;;;;;;;;;;;;5093652;28;19908;-68
2022/03/29 01:11:01;;;;;;;;;;;;;;;;;;5094902;28;19931;-68
2022/03/29 01:13:27;;;;;;;;;;;;;;;;;;5093069;28;19908;-68
2022/03/29 01:15:53;;;;;;;;;;;;;;;;;;5094846;28;19908;-69
2022/03/29 01:18:20;;;;;;;;;;;;;;;;;;5094875;28;19953;-68
2022/03/29 01:20:46;;;;;;;;;;;;;;;;;;5093031;28;19947;-68
2022/03/29 01:23:12;;;;;;;;;;;;;;;;;;5094588;28;19915;-68
2022/03/29 01:25:38;;;;;;;;;;;;;;;;;;5094418;28;20332;-68
2022/03/29 01:28:04;;;;;;;;;;;;;;;;;;5094206;28;19946;-68
2022/03/29 01:30:30;;;;;;;;;;;;;;;;;;5093236;28;20326;-67
2022/03/29 01:32:56;;;;;;;;;;;;;;;;;;5092789;28;19908;-68
2022/03/29 01:35:22;;;;;;;;;;;;;;;;;;5093200;28;20275;-68
2022/03/29 01:37:48;;;;;;;;;;;;;;;;;;5094513;28;19915;-68
2022/03/29 01:40:15;;;;;;;;;;;;;;;;;;5094075;28;19908;-68
2022/03/29 01:42:44;;;;;;;;;;;;;;;;;;5094293;28;19913;-69
2022/03/29 01:45:10;;;;;;;;;;;;;;;;;;5094305;28;19916;-68
2022/03/29 01:47:36;;;;;;;;;;;;;;;;;;5093904;28;20019;-68
2022/03/29 01:50:02;;;;;;;;;;;;;;;;;;5092983;28;20379;-68
2022/03/29 01:52:28;;;;;;;;;;;;;;;;;;5094218;28;19940;-69
2022/03/29 01:54:54;;;;;;;;;;;;;;;;;;5093828;28;19908;-69
2022/03/29 01:57:20;;;;;;;;;;;;;;;;;;5094291;28;19934;-69
2022/03/29 02:02:30;;;;;;;;;;;;;;;;;;5093528;28;19919;-68
2022/03/29 02:04:56;;;;;;;;;;;;;;;;;;5094161;28;19908;-68
2022/03/29 02:07:23;;;;;;;;;;;;;;;;;;5094110;28;19954;-68
2022/03/29 02:09:49;;;;;;;;;;;;;;;;;;5093595;28;19908;-68
2022/03/29 02:12:15;;;;;;;;;;;;;;;;;;5093887;28;20448;-68
2022/03/29 02:14:40;;;;;;;;;;;;;;;;;;5093837;28;19912;-68
2022/03/29 02:17:07;;;;;;;;;;;;;;;;;;5093474;28;19908;-68
2022/03/29 02:19:32;;;;;;;;;;;;;;;;;;5093773;28;19908;-68
2022/03/29 02:21:59;;;;;;;;;;;;;;;;;;5092432;28;19908;-69
2022/03/29 02:24:24;;;;;;;;;;;;;;;;;;5093301;28;20279;-68
2022/03/29 02:26:50;;;;;;;;;;;;;;;;;;5093544;28;19924;-68
2022/03/29 02:29:16;;;;;;;;;;;;;;;;;;5093264;28;19908;-68
2022/03/29 02:31:42;;;;;;;;;;;;;;;;;;5093581;28;19960;-68
2022/03/29 02:34:08;;;;;;;;;;;;;;;;;;5092401;28;19908;-68
2022/03/29 02:36:34;;;;;;;;;;;;;;;;;;5093293;28;19912;-68
2022/03/29 02:39:00;;;;;;;;;;;;;;;;;;5092282;28;19916;-68
2022/03/29 02:41:26;;;;;;;;;;;;;;;;;;5093540;28;19953;-68
2022/03/29 02:43:52;;;;;;;;;;;;;;;;;;5093100;28;19912;-69
2022/03/29 02:46:19;;;;;;;;;;;;;;;;;;5093501;28;19916;-68
2022/03/29 02:48:45;;;;;;;;;;;;;;;;;;5092278;28;19908;-68
2022/03/29 02:51:11;;;;;;;;;;;;;;;;;;5093007;28;19957;-68
2022/03/29 02:53:37;;;;;;;;;;;;;;;;;;5093447;28;19908;-69
2022/03/29 02:56:03;;;;;;;;;;;;;;;;;;5093518;28;20318;-68
2022/03/29 02:58:29;;;;;;;;;;;;;;;;;;5091759;28;19930;-68
2022/03/29 03:00:55;;;;;;;;;;;;;;;;;;5093468;28;19987;-69
2022/03/29 03:03:21;;;;;;;;;;;;;;;;;;5093372;28;19916;-68
2022/03/29 03:05:47;;;;;;;;;;;;;;;;;;5093071;28;20428;-68
2022/03/29 03:08:13;;;;;;;;;;;;;;;;;;5093410;28;19908;-67
2022/03/29 03:10:39;;;;;;;;;;;;;;;;;;5093230;28;19915;-68
2022/03/29 03:13:05;;;;;;;;;;;;;;;;;;5095221;28;19909;-67
2022/03/29 03:15:31;;;;;;;;;;;;;;;;;;5097106;28;20015;-67
2022/03/29 03:17:58;;;;;;;;;;;;;;;;;;5097068;28;19908;-67
2022/03/29 03:20:24;;;;;;;;;;;;;;;;;;5096767;28;19915;-68
2022/03/29 03:22:50;;;;;;;;;;;;;;;;;;5096989;28;19916;-68
2022/03/29 03:25:16;;;;;;;;;;;;;;;;;;5096610;28;20015;-68
2022/03/29 03:27:42;;;;;;;;;;;;;;;;;;5096566;28;19950;-68
2022/03/29 03:30:08;;;;;;;;;;;;;;;;;;5096921;28;19946;-68
2022/03/29 03:32:34;;;;;;;;;;;;;;;;;;5095210;28;19908;-67
2022/03/29 03:35:00;;;;;;;;;;;;;;;;;;5095345;28;19976;-67
2022/03/29 03:37:26;;;;;;;;;;;;;;;;;;5096734;28;19909;-68
2022/03/29 03:39:52;;;;;;;;;;;;;;;;;;5096292;28;19915;-68
2022/03/29 03:42:18;;;;;;;;;;;;;;;;;;5096579;28;20249;-68
2022/03/29 03:44:44;;;;;;;;;;;;;;;;;;5095226;28;20007;-68
2022/03/29 03:47:10;;;;;;;;;;;;;;;;;;5096471;28;19916;-67
2022/03/29 03:49:36;;;;;;;;;;;;;;;;;;5096467;28;19977;-68
2022/03/29 03:52:02;;;;;;;;;;;;;;;;;;5096534;28;19990;-67
2022/03/29 03:54:28;;;;;;;;;;;;;;;;;;5095842;28;20037;-67
2022/03/29 03:56:54;;;;;;;;;;;;;;;;;;5096341;28;19908;-67
2022/03/29 03:59:21;;;;;;;;;;;;;;;;;;5094969;28;20323;-68
2022/03/29 04:01:47;;;;;;;;;;;;;;;;;;5094525;28;19912;-67
2022/03/29 04:04:12;;;;;;;;;;;;;;;;;;5096313;28;19969;-67
2022/03/29 04:06:38;;;;;;;;;;;;;;;;;;5096362;28;19962;-67
2022/03/29 04:09:04;;;;;;;;;;;;;;;;;;5095660;28;19908;-67
2022/03/29 04:11:30;;;;;;;;;;;;;;;;;;5095881;28;19912;-69
2022/03/29 04:13:56;;;;;;;;;;;;;;;;;;5095957;28;20364;-69
2022/03/29 04:16:22;;;;;;;;;;;;;;;;;;5095588;28;19965;-78
2022/03/29 04:18:48;;;;;;;;;;;;;;;;;;5096174;28;19908;-78
2022/03/29 04:21:14;;;;;;;;;;;;;;;;;;5096070;28;19931;-78
2022/03/29 04:23:40;;;;;;;;;;;;;;;;;;5095518;28;19935;-79
2022/03/29 04:26:06;;;;;;;;;;;;;;;;;;5095555;28;19966;-78
2022/03/29 04:28:32;;;;;;;;;;;;;;;;;;5095910;28;20364;-77
2022/03/29 04:30:59;;;;;;;;;;;;;;;;;;5095195;28;19973;-78
2022/03/29 04:33:25;;;;;;;;;;;;;;;;;;5095544;28;19942;-77
2022/03/29 04:35:51;;;;;;;;;;;;;;;;;;5093917;28;20013;-78
2022/03/29 04:38:17;;;;;;;;;;;;;;;;;;5095571;28;19908;-78
2022/03/29 04:40:43;;;;;;;;;;;;;;;;;;5095463;28;20225;-80
2022/03/29 04:43:09;;;;;;;;;;;;;;;;;;5093900;28;19909;-78
2022/03/29 04:45:35;;;;;;;;;;;;;;;;;;5095418;28;19919;-78
2022/03/29 04:48:01;;;;;;;;;;;;;;;;;;5095230;28;19912;-77
2022/03/29 04:50:27;;;;;;;;;;;;;;;;;;5095274;28;19912;-79
2022/03/29 04:52:53;;;;;;;;;;;;;;;;;;5094486;28;19916;-80
2022/03/29 04:55:19;;;;;;;;;;;;;;;;;;5101985;28;19933;-78
2022/03/29 04:57:45;;;;;;;;;;;;;;;;;;5118569;28;19912;-78
2022/03/29 05:00:12;;;;;;;;;;;;;;;;;;5106484;28;20273;-80
2022/03/29 05:02:38;;;;;;;;;;;;;;;;;;5094667;28;19943;-80
2022/03/29 05:05:04;;;;;;;;;;;;;;;;;;5094110;28;19962;-79
2022/03/29 05:07:30;;;;;;;;;;;;;;;;;;5094681;28;20276;-79
2022/03/29 05:09:56;;;;;;;;;;;;;;;;;;5094876;28;20013;-79
2022/03/29 05:12:22;;;;;;;;;;;;;;;;;;5095947;28;20412;-79
2022/03/29 05:14:48;;;;;;;;;;;;;;;;;;5095532;28;19908;-79
2022/03/29 05:17:14;;;;;;;;;;;;;;;;;;5093084;28;20015;-81
2022/03/29 05:19:40;;;;;;;;;;;;;;;;;;5095648;28;19981;-79
2022/03/29 05:22:06;;;;;;;;;;;;;;;;;;5094993;28;19908;-78
2022/03/29 05:24:32;;;;;;;;;;;;;;;;;;5095141;28;19908;-73
2022/03/29 05:26:58;;;;;;;;;;;;;;;;;;5110879;27;19924;-71
2022/03/29 05:29:25;;;;;;;;;;;;;;;;;;5080858;28;19919;-70
2022/03/29 05:31:51;;;;;;;;;;;;;;;;;;5093472;28;20400;-72
2022/03/29 05:34:17;;;;;;;;;;;;;;;;;;5092514;28;20022;-71
2022/03/29 05:36:45;;;;;;;;;;;;;;;;;;5093700;28;19951;-73
2022/03/29 05:39:13;;;;;;;;;;;;;;;;;;5090979;28;19912;-71
2022/03/29 05:41:39;;;;;;;;;;;;;;;;;;5091347;28;20225;-71
2022/03/29 05:44:05;;;;;;;;;;;;;;;;;;5092654;28;19912;-71
2022/03/29 05:49:16;;;;;;;;;;;;;;;;;;5089754;28;19915;-71
2022/03/29 05:51:42;;;;;;;;;;;;;;;;;;5089376;28;20265;-71
2022/03/29 05:54:08;;;;;;;;;;;;;;;;;;5089965;28;20398;-71
2022/03/29 05:56:35;;;;;;;;;;;;;;;;;;5090262;28;19985;-70
2022/03/29 05:59:01;;;;;;;;;;;;;;;;;;5087655;28;19935;-72
2022/03/29 06:01:29;;;;;;;;;;;;;;;;;;5088735;28;19923;-71
2022/03/29 06:03:55;;;;;;;;;;;;;;;;;;5090124;28;20005;-71
2022/03/29 06:06:21;;;;;;;;;;;;;;;;;;5090434;28;20434;-70
2022/03/29 06:08:48;;;;;;;;;;;;;;;;;;5092552;28;19908;-70
2022/03/29 06:11:14;;;;;;;;;;;;;;;;;;5092492;28;19909;-71
2022/03/29 06:13:40;;;;;;;;;;;;;;;;;;5092968;28;19908;-71
2022/03/29 06:16:06;;;;;;;;;;;;;;;;;;5092555;28;19951;-70
2022/03/29 06:18:33;;;;;;;;;;;;;;;;;;5092700;28;19942;-70
2022/03/29 06:20:59;;;;;;;;;;;;;;;;;;5088381;28;20364;-70
2022/03/29 06:23:25;;;;;;;;;;;;;;;;;;5090653;28;19923;-73
2022/03/29 06:25:51;;;;;;;;;;;;;;;;;;5089524;28;19924;-70
2022/03/29 06:28:17;;;;;;;;;;;;;;;;;;5091971;28;19912;-72
2022/03/29 06:30:43;;;;;;;;;;;;;;;;;;5086742;28;19916;-73
2022/03/29 06:33:10;;;;;;;;;;;;;;;;;;5091644;28;20382;-75
2022/03/29 06:35:38;;;;;;;;;;;;;;;;;;5090694;28;19908;-76
2022/03/29 06:38:04;;;;;;;;;;;;;;;;;;5090951;28;19915;-74
2022/03/29 06:40:30;;;;;;;;;;;;;;;;;;5090541;28;20007;-72
2022/03/29 06:42:57;;;;;;;;;;;;;;;;;;5090703;28;19971;-72
2022/03/29 06:45:23;;;;;;;;;;;;;;;;;;5091704;28;19935;-71
2022/03/29 06:47:50;;;;;;;;;;;;;;;;;;5093496;28;19916;-70
2022/03/29 06:50:16;;;;;;;;;;;;;;;;;;5096297;28;19912;-72
2022/03/29 06:52:42;;;;;;;;;;;;;;;;;;5097076;28;19914;-68
2022/03/29 06:55:08;;;;;;;;;;;;;;;;;;5096652;28;19908;-69
2022/03/29 06:57:33;;;;;;;;;;;;;;;;;;5106429;28;19953;-68
2022/03/29 06:59:59;;;;;;;;;;;;;;;;;;5115317;28;20368;-70
2022/03/29 07:02:25;;;;;;;;;;;;;;;;;;5116222;28;19907;-71
2022/03/29 07:04:51;;;;;;;;;;;;;;;;;;5115440;28;20034;-72
2022/03/29 07:07:17;;;;;;;;;;;;;;;;;;5115966;28;20375;-72
2022/03/29 07:12:32;;;;;;;;;;;;;;;;;;5096217;28;19927;-69
2022/03/29 07:14:58;;;;;;;;;;;;;;;;;;5096041;28;19916;-70
2022/03/29 07:17:24;;;;;;;;;;;;;;;;;;5095461;28;19943;-69
2022/03/29 07:19:50;;;;;;;;;;;;;;;;;;5095342;28;19955;-70
2022/03/29 07:22:18;;;;;;;;;;;;;;;;;;5096168;28;19912;-70
2022/03/29 07:24:44;;;;;;;;;;;;;;;;;;5095916;28;20275;-71
2022/03/29 07:27:10;;;;;;;;;;;;;;;;;;5095098;28;19920;-69
2022/03/29 07:29:36;;;;;;;;;;;;;;;;;;5094837;28;19915;-68
2022/03/29 07:32:02;;;;;;;;;;;;;;;;;;5094516;28;19912;-71
2022/03/29 07:34:57;;;;;;;;;;;;;;;;;;5111502;27;19917;-69
2022/03/29 07:37:23;;;;;;;;;;;;;;;;;;5109677;28;19973;-72
2022/03/29 07:44:30;;;;;;;;;;;;;;;;;;5110558;27;19927;-70
2022/03/29 07:46:56;;;;;;;;;;;;;;;;;;5110830;28;20284;-69
2022/03/29 07:49:22;;;;;;;;;;;;;;;;;;5107858;28;20322;-69
2022/03/29 07:51:48;;;;;;;;;;;;;;;;;;5109656;28;19916;-70
2022/03/29 07:55:32;;;;;;;;;;;;;;;;;;5170359;27;19911;-70
2022/03/29 07:57:58;;;;;;;;;;;;;;;;;;5170209;27;19984;-70
2022/03/29 08:02:30;;;;;;;;;;;;;;;;;;5070311;28;19921;-71
2022/03/29 08:05:37;;;;;;;;;;;;;;;;;;5110288;27;19916;-71
2022/03/29 08:08:38;;;;;;;;;;;;;;;;;;5106805;27;20394;-69
2022/03/29 08:11:04;;;;;;;;;;;;;;;;;;5108367;28;19912;-69
2022/03/29 08:13:30;;;;;;;;;;;;;;;;;;5109175;28;19948;-68
2022/03/29 08:15:58;;;;;;;;;;;;;;;;;;5110519;28;19998;-68
2022/03/29 08:18:25;;;;;;;;;;;;;;;;;;5110033;28;19916;-68
2022/03/29 08:22:53;;;;;;;;;;;;;;;;;;5108725;27;20406;-67
2022/03/29 08:25:21;;;;;;;;;;;;;;;;;;5107932;28;21195;-68
2022/03/29 08:33:20;;;;;;;;;;;;;;;;;;5125042;27;19916;-69
2022/03/29 08:39:40;;;;;;;;;;;;;;;;;;5089021;27;19916;-66
2022/03/29 08:46:33;;;;;;;;;;;;;;;;;;5133789;27;19921;-69
2022/03/29 08:48:59;;;;;;;;;;;;;;;;;;5141355;27;19911;-69
2022/03/29 08:51:25;;;;;;;;;;;;;;;;;;5139314;27;20366;-69
2022/03/29 08:54:45;;;;;;;;;;;;;;;;;;5129024;27;19918;-66
2022/03/29 08:57:11;;;;;;;;;;;;;;;;;;5107837;28;19911;-69
2022/03/29 09:00:59;;;;;;;;;;;;;;;;;;5118925;27;20359;-68
2022/03/29 09:03:25;;;;;;;;;;;;;;;;;;5118402;28;20302;-68
2022/03/29 09:10:09;;;;;;;;;;;;;;;;;;5110393;27;20299;-67
2022/03/29 09:12:35;;;;;;;;;;;;;;;;;;5125928;28;19965;-70
2022/03/29 09:15:01;;;;;;;;;;;;;;;;;;5117408;28;19912;-69
2022/03/29 09:17:27;;;;;;;;;;;;;;;;;;5117550;28;19912;-69
2022/03/29 09:22:12;;;;;;;;;;;;;;;;;;5131603;27;20402;-68
2022/03/29 09:25:34;;;;;;;;;;;;;;;;;;5110412;27;19922;-69
2022/03/29 09:28:00;;;;;;;;;;;;;;;;;;5108737;28;19911;-69
2022/03/29 09:30:26;;;;;;;;;;;;;;;;;;5109318;28;19991;-68
2022/03/29 09:35:48;;;;;;;;;;;;;;;;;;5111114;27;19912;-69
2022/03/29 09:38:14;;;;;;;;;;;;;;;;;;5110210;28;20006;-68
2022/03/29 09:40:40;;;;;;;;;;;;;;;;;;5110740;28;20019;-68
2022/03/29 09:44:28;;;;;;;;;;;;;;;;;;5089175;27;19912;-69
2022/03/29 09:46:54;;;;;;;;;;;;;;;;;;5087780;28;20283;-73
2022/03/29 09:49:20;;;;;;;;;;;;;;;;;;5088867;28;19909;-72
2022/03/29 09:54:04;;;;;;;;;;;;;;;;;;5107233;27;19916;-74
2022/03/29 09:58:35;;;;;;;;;;;;;;;;;;5111130;27;19916;-74
2022/03/29 10:01:01;;;;;;;;;;;;;;;;;;5107723;28;20320;-71
2022/03/29 10:03:27;;;;;;;;;;;;;;;;;;5110232;28;19951;-69
2022/03/29 10:07:38;;;;;;;;;;;;;;;;;;5090460;27;20376;-69
2022/03/29 10:12:32;;;;;;;;;;;;;;;;;;5110093;27;19916;-68
2022/03/29 10:19:03;;;;;;;;;;;;;;;;;;5089529;27;19913;-68
2022/03/29 10:22:10;;;;;;;;;;;;;;;;;;5090065;27;19913;-69
2022/03/29 10:24:38;;;;;;;;;;;;;;;;;;5089624;28;20396;-69
2022/03/29 10:27:04;;;;;;;;;;;;;;;;;;5090604;28;19909;-68
2022/03/29 10:29:30;;;;;;;;;;;;;;;;;;5090485;28;19954;-68
2022/03/29 10:32:46;;;;;;;;;;;;;;;;;;5109894;27;19942;-69
2022/03/29 10:36:55;;;;;;;;;;;;;;;;;;5110428;27;20414;-69
2022/03/29 10:39:24;;;;;;;;;;;;;;;;;;5111206;28;19999;-68
2022/03/29 10:45:13;;;;;;;;;;;;;;;;;;5090694;27;19913;-68
2022/03/29 10:48:57;;;;;;;;;;;;;;;;;;5110483;27;19920;-68
2022/03/29 10:51:23;;;;;;;;;;;;;;;;;;5109899;28;20384;-69
2022/03/29 10:56:25;;;;;;;;;;;;;;;;;;5111135;27;19934;-68
2022/03/29 10:58:51;;;;;;;;;;;;;;;;;;5110567;28;20014;-68
2022/03/29 11:02:23;;;;;;;;;;;;;;;;;;5090883;28;19917;-68
2022/03/29 11:06:54;;;;;;;;;;;;;;;;;;5090625;27;19920;-69
2022/03/29 11:09:20;;;;;;;;;;;;;;;;;;5077306;28;20003;-69
2022/03/29 11:11:51;;;;;;;;;;;;;;;;;;5085894;28;19999;-73
2022/03/29 11:14:17;;;;;;;;;;;;;;;;;;5090368;28;19951;-72
2022/03/29 11:19:08;;;;;;;;;;;;;;;;;;5111006;27;19926;-72
2022/03/29 11:21:36;;;;;;;12.57;5.80;;;;;;;;;;5108980;28;20486;-72
2022/03/29 11:25:22;;;;;;;10.38;5.40;;;;;;;;;;5098450;27;20937;-72
2022/03/29 11:30:13;;;;;;;10.52;5.00;;;;;;;;;;5109749;27;20522;-72
2022/03/29 11:32:47;;;;;;;13.05;4.85;;;;;;;;;;5095243;28;20040;-72
2022/03/29 11:35:15;;;;;;;10.48;4.95;;;;;;;;;;5089621;28;20095;-72
2022/03/29 11:37:43;;;;;;;8.38;4.85;;;;;;;;;;5087687;28;20032;-72
2022/03/29 11:40:19;;;;;;;10.23;5.18;;;;;;;;;;5088938;28;20376;-70
2022/03/29 11:42:53;;;;;;;10.05;5.78;;;;;;;;;;5084234;28;20435;-70
2022/03/29 11:45:26;;;;;;;13.82;5.65;;;;;;;;;;5090076;28;20214;-71
2022/03/29 11:49:20;;;;;;;10.90;5.70;;;;;;;;;;5110703;27;20399;-71
2022/03/29 11:56:27;;;;;;;11.93;6.38;;;;;;;;;;5110415;27;20389;-72
2022/03/29 12:02:03;;;;;;;9.55;5.13;;;;;;;;;;5110142;27;21044;-71
2022/03/29 12:04:32;;;;;;;9.07;5.70;;;;;;;;;;5109852;28;20028;-71
2022/03/29 12:09:03;;;;;;;10.43;5.93;;;;;;;;;;5110301;27;20392;-72
2022/03/29 12:12:50;;;;;;;11.90;5.53;;;;;;;;;;5110448;27;20400;-71
2022/03/29 12:16:14;;;;;;;10.70;5.20;;;;;;;;;;5109024;27;20397;-71
2022/03/29 12:18:40;;;;;;;9.90;5.32;;;;;;;;;;5110714;28;20111;-74
2022/03/29 12:21:13;;;;;;;16.15;5.57;;;;;;;;;;5110366;28;20399;-74
2022/03/29 12:23:41;;;;;;;11.55;5.57;;;;;;;;;;5104792;28;20015;-75
2022/03/29 12:26:09;;;;;;;10.40;5.13;;;;;;;;;;5107978;28;20036;-75
2022/03/29 12:31:24;;;;;;;10.63;5.50;;;;;;;;;;5110556;27;20520;-75
2022/03/29 12:33:51;;;;;;;8.38;5.03;;;;;;;;;;5108727;28;20034;-73
2022/03/29 12:36:17;;;;;;;12.18;7.13;;;;;;;;;;5109200;28;20606;-72
2022/03/29 12:39:43;;;;;;;10.18;5.40;;;;;;;;;;5131264;27;20305;-72
2022/03/29 12:42:12;;;;;;;19.08;5.93;;;;;;;;;;5097354;28;20039;-71
2022/03/29 12:46:15;;;;;;;10.60;5.50;;;;;;;;;;5110912;27;20406;-71
2022/03/29 12:48:48;;;;;;;9.90;6.20;;;;;;;;;;5109836;28;20024;-71
2022/03/29 12:51:14;;;;;;;14.15;6.90;;;;;;;;;;5110860;28;20027;-72
2022/03/29 12:53:40;;;;;;;13.23;5.38;;;;;;;;;;5109407;28;20028;-70
2022/03/29 12:56:10;;;;;;;12.57;5.20;;;;;;;;;;5110066;28;20020;-71
2022/03/29 12:58:38;;;;;;;9.85;5.82;;;;;;;;;;5107956;28;20020;-70
2022/03/29 13:01:05;;;;;;;9.07;5.57;;;;;;;;;;5108743;28;20020;-68
2022/03/29 13:03:38;;;;;;;9.70;6.20;;;;;;;;;;5109959;28;20031;-68
2022/03/29 13:06:04;;;;;;;10.80;6.40;;;;;;;;;;5109165;28;20035;-68
2022/03/29 13:08:31;;;;;;;12.05;7.00;;;;;;;;;;5109105;28;20391;-68
2022/03/29 13:10:58;;;;;;;10.05;5.88;;;;;;;;;;5110274;28;20529;-67
2022/03/29 13:13:28;;;;;;;9.98;4.95;;;;;;;;;;5109216;28;20028;-68
2022/03/29 13:15:55;;;;;;;8.52;4.85;;;;;;;;;;5108827;28;20023;-67
2022/03/29 13:18:23;;;;;;;11.95;5.65;;;;;;;;;;5110034;28;20382;-67
2022/03/29 13:20:50;;;;;;;9.60;4.63;;;;;;;;;;5110347;28;20016;-68
2022/03/29 13:23:31;;;;;;;12.48;6.43;;;;;;;;;;5110269;28;20024;-67
2022/03/29 13:25:57;;;;;;;20.92;11.20;;;;;;;;;;5108842;28;20114;-68
2022/03/29 13:28:24;;;;;;;10.40;6.57;;;;;;;;;;5110257;28;20020;-68
2022/03/29 13:30:50;;;;;;;11.77;6.28;;;;;;;;;;5108522;28;20023;-68
2022/03/29 13:33:16;;;;;;;10.85;5.18;;;;;;;;;;5108931;28;20020;-68
2022/03/29 13:35:46;;;;;;;9.65;5.30;;;;;;;;;;5110281;28;20034;-68
2022/03/29 13:38:12;;;;;;;7.85;4.30;;;;;;;;;;5110075;28;20375;-69
2022/03/29 13:40:39;;;;;;;10.82;5.13;;;;;;;;;;5110179;28;20028;-68
2022/03/29 13:43:05;;;;;;;14.10;4.78;;;;;;;;;;5108759;28;20031;-68
2022/03/29 13:45:31;;;;;;;9.02;4.75;;;;;;;;;;5109360;28;20052;-68
2022/03/29 13:47:58;;;;;;;7.55;5.13;;;;;;;;;;5110357;28;20443;-68
2022/03/29 13:50:24;;;;;;;10.10;4.45;;;;;;;;;;5108716;28;20476;-68
2022/03/29 13:52:50;;;;;;;10.63;5.22;;;;;;;;;;5108290;28;20019;-69
2022/03/29 13:55:17;;;;;;;10.80;5.55;;;;;;;;;;5108506;28;20053;-69
2022/03/29 13:57:44;;;;;;;9.32;5.07;;;;;;;;;;5093762;28;20023;-68
2022/03/29 14:00:12;;;;;;;9.85;5.82;;;;;;;;;;5103665;28;20024;-67
2022/03/29 14:02:38;;;;;;;11.55;5.90;;;;;;;;;;5114164;28;20426;-68
2022/03/29 14:05:05;;;;;;;8.90;4.47;;;;;;;;;;5115712;28;20035;-67
2022/03/29 14:07:32;;;;;;;8.00;4.65;;;;;;;;;;5115308;28;20024;-67
2022/03/29 14:09:58;;;;;;;10.57;4.90;;;;;;;;;;5101868;28;20047;-67
2022/03/29 14:12:24;;;;;;;9.48;4.80;;;;;;;;;;5083932;28;20024;-68
2022/03/29 14:14:50;;;;;;;9.63;5.15;;;;;;;;;;5074208;28;20073;-69
2022/03/29 14:17:17;;;;;;;10.93;5.65;;;;;;;;;;5075575;28;20116;-68
2022/03/29 14:19:45;;;;;;;13.25;5.68;;;;;;;;;;5075118;28;20497;-69
2022/03/29 14:22:14;;;;;;;12.73;6.38;;;;;;;;;;5075307;28;20025;-68
2022/03/29 14:24:40;;;;;;;10.20;5.05;;;;;;;;;;5075467;28;20024;-67
2022/03/29 14:27:07;;;;;;;10.38;5.68;;;;;;;;;;5074939;28;20032;-68
2022/03/29 14:29:33;;;;;;;10.10;5.30;;;;;;;;;;5075378;28;20027;-68
2022/03/29 14:32:02;;;;;;;11.82;5.20;;;;;;;;;;5075039;28;20138;-68
2022/03/29 14:34:28;;;;;;;19.27;11.70;;;;;;;;;;5074719;28;20100;-69
2022/03/29 14:36:55;;;;;;;16.92;9.48;;;;;;;;;;5075201;28;20056;-69
2022/03/29 14:39:21;;;;;;;11.98;6.63;;;;;;;;;;5075063;28;20024;-67
2022/03/29 14:41:48;;;;;;;10.07;6.03;;;;;;;;;;5073393;28;20036;-67
2022/03/29 14:44:14;;;;;;;15.88;5.75;;;;;;;;;;5073296;28;20045;-68
2022/03/29 14:46:43;;;;;;;9.85;5.90;;;;;;;;;;5073818;28;20483;-67
2022/03/29 14:49:09;;;;;;;19.85;10.23;;;;;;;;;;5074608;28;20040;-67
2022/03/29 14:51:36;;;;;;;12.10;6.38;;;;;;;;;;5074822;28;20032;-67
2022/03/29 14:54:04;;;;;;;12.73;6.57;;;;;;;;;;5074420;28;20021;-68
2022/03/29 14:56:30;;;;;;;15.93;8.20;;;;;;;;;;5074522;28;20016;-68
2022/03/29 14:58:57;;;;;;;12.00;6.43;;;;;;;;;;5074813;28;20499;-68
2022/03/29 15:01:23;;;;;;;13.48;7.40;;;;;;;;;;5074857;28;20033;-68
2022/03/29 15:03:49;;;;;;;13.65;7.85;;;;;;;;;;5074330;28;20020;-69
2022/03/29 15:06:16;;;;;;;21.60;10.73;;;;;;;;;;5076992;28;20033;-66
2022/03/29 15:08:42;;;;;;;11.43;7.10;;;;;;;;;;5091259;28;20413;-68
2022/03/29 15:11:09;;;;;;;22.58;10.75;;;;;;;;;;5094416;28;20419;-66
2022/03/29 15:13:35;;;;;;;18.33;8.63;;;;;;;;;;5094604;28;20024;-67
2022/03/29 15:16:01;;;;;;;18.73;8.13;;;;;;;;;;5094198;28;20032;-67
2022/03/29 15:18:27;;;;;;;14.57;8.02;;;;;;;;;;5094416;28;20020;-67
2022/03/29 15:20:55;;;;;;;12.30;6.10;;;;;;;;;;5094326;28;20385;-67
2022/03/29 15:23:21;;;;;;;9.38;5.38;;;;;;;;;;5094126;28;20024;-69
2022/03/29 15:25:47;;;;;;;9.48;5.07;;;;;;;;;;5092459;28;20093;-69
2022/03/29 15:28:13;;;;;;;12.60;6.28;;;;;;;;;;5093024;28;20027;-67
2022/03/29 15:30:40;;;;;;;12.27;6.43;;;;;;;;;;5090883;28;20050;-67
2022/03/29 15:33:06;;;;;;;12.80;8.15;;;;;;;;;;5074435;28;20024;-68
2022/03/29 15:35:32;;;;;;;19.75;10.80;;;;;;;;;;5071903;28;20032;-67
2022/03/29 15:37:59;;;;;;;13.32;7.15;;;;;;;;;;5073516;28;20048;-68
2022/03/29 15:40:25;;;;;;;13.18;7.18;;;;;;;;;;5071119;28;20020;-69
2022/03/29 15:42:52;;;;;;;16.23;9.98;;;;;;;;;;5073280;28;20106;-68
2022/03/29 15:45:18;;;;;;;12.57;6.75;;;;;;;;;;5071465;28;20048;-68
2022/03/29 15:47:44;;;;;;;16.42;8.93;;;;;;;;;;5072325;28;20504;-68
2022/03/29 15:50:11;;;;;;;14.52;8.40;;;;;;;;;;5073849;28;20099;-67
2022/03/29 15:52:37;;;;;;;15.77;8.55;;;;;;;;;;5073307;28;20090;-68
2022/03/29 15:55:04;;;;;;;15.18;8.13;;;;;;;;;;5073991;28;20028;-68
2022/03/29 15:57:31;;;;;;;17.10;9.88;;;;;;;;;;5073737;28;20017;-67
2022/03/29 15:59:57;;;;;;;17.00;8.55;;;;;;;;;;5073359;28;20489;-69
2022/03/29 16:04:24;;;;;;;15.23;8.05;;;;;;;;;;5111510;27;21017;-67
2022/03/29 16:06:50;;;;;;;12.70;8.32;;;;;;;;;;5110742;28;20376;-68
2022/03/29 16:09:18;;;;;;;17.17;9.77;;;;;;;;;;5111240;28;20051;-67
2022/03/29 16:11:53;;;;;;;16.52;10.30;;;;;;;;;;5111042;28;20446;-68
2022/03/29 16:14:19;;;;;;;20.05;10.75;;;;;;;;;;5110683;28;20016;-68
2022/03/29 16:16:46;;;;;;;18.77;10.02;;;;;;;;;;5111059;28;20027;-69
2022/03/29 16:19:12;;;;;;;16.88;9.80;;;;;;;;;;5110550;28;20030;-69
2022/03/29 16:21:39;;;;;;;16.40;9.73;;;;;;;;;;5110951;28;20054;-69
2022/03/29 16:24:06;;;;;;;16.77;10.45;;;;;;;;;;5110983;28;20484;-68
2022/03/29 16:26:33;;;;;;;17.92;10.80;;;;;;;;;;5108934;28;20024;-68
2022/03/29 16:29:01;;;;;;;19.42;12.40;;;;;;;;;;5110880;28;20038;-68
2022/03/29 16:31:27;;;;;;;23.33;10.48;;;;;;;;;;5109612;28;20491;-69
2022/03/29 16:35:27;;;;;;;18.15;10.18;;;;;;;;;;5110879;27;20504;-68
2022/03/29 16:37:54;;;;;;;19.98;11.60;;;;;;;;;;5109881;28;20035;-70
2022/03/29 16:40:20;;;;;;;26.25;16.42;;;;;;;;;;5110712;28;20031;-69
2022/03/29 16:43:59;;;;;;;34.70;21.80;;;;;;;;;;5144829;27;20397;-67
2022/03/29 16:46:27;;;;;;;32.83;22.70;;;;;;;;;;5109907;28;20031;-69
2022/03/29 16:48:53;;;;;;;32.03;19.90;;;;;;;;;;5110686;28;20050;-68
2022/03/29 16:53:13;;;;;;;48.10;24.15;;;;;;;;;;5111435;27;20393;-68
2022/03/29 16:55:39;;;;;;;35.58;22.73;;;;;;;;;;5110810;28;20031;-69
2022/03/29 16:58:06;;;;;;;45.53;26.55;;;;;;;;;;5092982;28;20030;-69
2022/03/29 17:00:35;;;;;;;169.35;121.20;;;;;;;;;;5109831;28;20499;-68
2022/03/29 17:03:01;;;;;;;48.05;32.33;;;;;;;;;;5109568;28;20085;-69
2022/03/29 17:05:29;;;;;;;35.63;22.38;;;;;;;;;;5109683;28;20047;-69
2022/03/29 17:10:50;;;;;;;33.03;17.85;;;;;;;;;;5111242;27;20767;-68
2022/03/29 17:14:53;;;;;;;39.38;21.05;;;;;;;;;;5111539;27;20424;-69
2022/03/29 17:18:28;;;;;;;59.13;29.45;;;;;;;;;;5111365;27;20395;-66
2022/03/29 17:20:54;;;;;;;77.43;40.05;;;;;;;;;;5109939;28;20036;-68
2022/03/29 17:23:21;;;;;;;97.10;46.17;;;;;;;;;;5109473;28;20027;-67
2022/03/29 17:28:23;;;;;;;52.85;33.63;;;;;;;;;;5111248;27;20565;-70
2022/03/29 17:30:50;;;;;;;41.45;23.98;;;;;;;;;;5110674;28;20031;-69
2022/03/29 17:33:16;;;;;;;31.42;20.05;;;;;;;;;;5109944;28;20028;-69
2022/03/29 17:35:46;;;;;;;25.33;15.20;;;;;;;;;;5110907;28;20028;-67
2022/03/29 17:38:14;;;;;;;23.15;13.80;;;;;;;;;;5109322;28;20054;-67
2022/03/29 17:40:40;;;;;;;30.88;18.70;;;;;;;;;;5110860;28;20099;-67
2022/03/29 17:44:48;;;;;;;43.65;26.73;;;;;;;;;;5172649;27;20647;-68
2022/03/29 17:47:15;;;;;;;34.47;22.30;;;;;;;;;;5133597;27;20023;-68